sensor_id;sensor_type;location;lat;lon;timestamp;temperature;humidity
19090;DHT22;9677;50.656;13.064;2022-08-01T00:01:39;24.70;45.10
19090;DHT22;9677;50.656;13.064;2022-08-01T00:04:12;24.70;45.10
19090;DHT22;9677;50.656;13.064;2022-08-01T00:06:40;24.60;45.30
19090;DHT22;9677;50.656;13.064;2022-08-01T00:09:09;24.60;45.30
19090;DHT22;9677;50.656;13.064;2022-08-01T00:11:50;24.60;45.30
19090;DHT22;9677;50.656;13.064;2022-08-01T00:14:35;24.50;45.30
19090;DHT22;9677;50.656;13.064;2022-08-01T00:17:05;24.50;45.30
19090;DHT22;9677;50.656;13.064;2022-08-01T00:19:36;24.40;45.40
19090;DHT22;9677;50.656;13.064;2022-08-01T00:22:04;24.40;45.40
19090;DHT22;9677;50.656;13.064;2022-08-01T00:24:34;24.40;45.50
19090;DHT22;9677;50.656;13.064;2022-08-01T00:27:04;24.40;45.50
19090;DHT22;9677;50.656;13.064;2022-08-01T00:29:32;24.30;45.50
19090;DHT22;9677;50.656;13.064;2022-08-01T00:32:24;24.30;45.60
19090;DHT22;9677;50.656;13.064;2022-08-01T00:34:57;24.20;45.60
19090;DHT22;9677;50.656;13.064;2022-08-01T00:37:26;24.20;45.70
19090;DHT22;9677;50.656;13.064;2022-08-01T00:39:57;24.20;45.70
19090;DHT22;9677;50.656;13.064;2022-08-01T00:42:26;24.10;45.70
19090;DHT22;9677;50.656;13.064;2022-08-01T00:44:55;24.10;45.70
19090;DHT22;9677;50.656;13.064;2022-08-01T00:47:23;24.00;45.80
19090;DHT22;9677;50.656;13.064;2022-08-01T00:49:53;24.10;45.80
19090;DHT22;9677;50.656;13.064;2022-08-01T00:52:24;23.90;45.80
19090;DHT22;9677;50.656;13.064;2022-08-01T00:54:53;23.90;46.00
19090;DHT22;9677;50.656;13.064;2022-08-01T00:57:22;23.80;45.90
19090;DHT22;9677;50.656;13.064;2022-08-01T01:00:12;23.80;46.00
19090;DHT22;9677;50.656;13.064;2022-08-01T01:02:42;23.80;46.00
19090;DHT22;9677;50.656;13.064;2022-08-01T01:05:12;23.70;46.00
19090;DHT22;9677;50.656;13.064;2022-08-01T01:07:46;23.70;46.10
19090;DHT22;9677;50.656;13.064;2022-08-01T01:10:22;23.70;46.20
19090;DHT22;9677;50.656;13.064;2022-08-01T01:12:58;23.60;46.20
19090;DHT22;9677;50.656;13.064;2022-08-01T01:15:34;23.60;46.30
19090;DHT22;9677;50.656;13.064;2022-08-01T01:18:09;23.50;46.40
19090;DHT22;9677;50.656;13.064;2022-08-01T01:20:43;23.60;46.40
19090;DHT22;9677;50.656;13.064;2022-08-01T01:23:26;23.50;46.40
19090;DHT22;9677;50.656;13.064;2022-08-01T01:26:08;23.40;46.60
19090;DHT22;9677;50.656;13.064;2022-08-01T01:29:02;23.40;46.50
19090;DHT22;9677;50.656;13.064;2022-08-01T01:31:36;23.40;46.80
19090;DHT22;9677;50.656;13.064;2022-08-01T01:34:12;23.30;46.60
19090;DHT22;9677;50.656;13.064;2022-08-01T01:36:43;23.30;46.70
19090;DHT22;9677;50.656;13.064;2022-08-01T01:39:12;23.30;46.70
19090;DHT22;9677;50.656;13.064;2022-08-01T01:41:43;23.20;46.70
19090;DHT22;9677;50.656;13.064;2022-08-01T01:44:14;23.20;46.70
19090;DHT22;9677;50.656;13.064;2022-08-01T01:46:43;23.20;46.70
19090;DHT22;9677;50.656;13.064;2022-08-01T01:49:14;23.30;46.80
19090;DHT22;9677;50.656;13.064;2022-08-01T01:51:46;23.20;47.00
19090;DHT22;9677;50.656;13.064;2022-08-01T01:54:30;23.30;47.10
19090;DHT22;9677;50.656;13.064;2022-08-01T01:57:03;23.10;47.00
19090;DHT22;9677;50.656;13.064;2022-08-01T01:59:36;23.10;47.10
19090;DHT22;9677;50.656;13.064;2022-08-01T02:02:06;23.10;47.20
19090;DHT22;9677;50.656;13.064;2022-08-01T02:04:39;23.10;47.10
19090;DHT22;9677;50.656;13.064;2022-08-01T02:07:21;23.00;47.20
19090;DHT22;9677;50.656;13.064;2022-08-01T02:09:51;23.00;47.20
19090;DHT22;9677;50.656;13.064;2022-08-01T02:12:20;23.20;47.20
19090;DHT22;9677;50.656;13.064;2022-08-01T02:14:52;23.00;47.20
19090;DHT22;9677;50.656;13.064;2022-08-01T02:17:23;22.90;47.40
19090;DHT22;9677;50.656;13.064;2022-08-01T02:19:52;22.90;47.40
19090;DHT22;9677;50.656;13.064;2022-08-01T02:22:25;22.90;47.40
19090;DHT22;9677;50.656;13.064;2022-08-01T02:25:02;23.00;47.60
19090;DHT22;9677;50.656;13.064;2022-08-01T02:27:36;22.90;47.70
19090;DHT22;9677;50.656;13.064;2022-08-01T02:30:13;22.90;47.60
19090;DHT22;9677;50.656;13.064;2022-08-01T02:32:46;22.80;47.70
19090;DHT22;9677;50.656;13.064;2022-08-01T02:35:20;22.80;47.80
19090;DHT22;9677;50.656;13.064;2022-08-01T02:37:56;22.80;47.80
19090;DHT22;9677;50.656;13.064;2022-08-01T02:40:26;22.70;47.70
19090;DHT22;9677;50.656;13.064;2022-08-01T02:42:56;22.70;47.70
19090;DHT22;9677;50.656;13.064;2022-08-01T02:45:28;22.70;47.70
19090;DHT22;9677;50.656;13.064;2022-08-01T02:48:01;22.70;47.80
19090;DHT22;9677;50.656;13.064;2022-08-01T02:50:35;22.70;48.00
19090;DHT22;9677;50.656;13.064;2022-08-01T02:53:05;22.70;47.90
19090;DHT22;9677;50.656;13.064;2022-08-01T02:55:38;22.70;48.00
19090;DHT22;9677;50.656;13.064;2022-08-01T02:58:09;22.70;48.00
19090;DHT22;9677;50.656;13.064;2022-08-01T03:00:41;22.70;48.00
19090;DHT22;9677;50.656;13.064;2022-08-01T03:03:15;22.70;48.10
19090;DHT22;9677;50.656;13.064;2022-08-01T03:05:45;22.70;48.00
19090;DHT22;9677;50.656;13.064;2022-08-01T03:08:16;22.60;48.00
19090;DHT22;9677;50.656;13.064;2022-08-01T03:10:46;22.60;48.00
19090;DHT22;9677;50.656;13.064;2022-08-01T03:13:15;22.60;48.00
19090;DHT22;9677;50.656;13.064;2022-08-01T03:15:48;22.60;48.00
19090;DHT22;9677;50.656;13.064;2022-08-01T03:18:17;22.60;48.10
19090;DHT22;9677;50.656;13.064;2022-08-01T03:20:46;22.60;48.10
19090;DHT22;9677;50.656;13.064;2022-08-01T03:23:15;22.60;48.10
19090;DHT22;9677;50.656;13.064;2022-08-01T03:25:44;22.60;48.20
19090;DHT22;9677;50.656;13.064;2022-08-01T03:28:16;22.60;48.20
19090;DHT22;9677;50.656;13.064;2022-08-01T03:30:46;22.60;48.30
19090;DHT22;9677;50.656;13.064;2022-08-01T03:33:16;22.60;48.30
19090;DHT22;9677;50.656;13.064;2022-08-01T03:35:47;22.60;48.30
19090;DHT22;9677;50.656;13.064;2022-08-01T03:38:19;22.60;48.40
19090;DHT22;9677;50.656;13.064;2022-08-01T03:40:53;22.60;48.40
19090;DHT22;9677;50.656;13.064;2022-08-01T03:43:28;22.50;48.40
19090;DHT22;9677;50.656;13.064;2022-08-01T03:46:06;22.50;48.50
19090;DHT22;9677;50.656;13.064;2022-08-01T03:48:40;22.50;48.50
19090;DHT22;9677;50.656;13.064;2022-08-01T03:51:10;22.40;48.50
19090;DHT22;9677;50.656;13.064;2022-08-01T03:53:41;22.40;48.40
19090;DHT22;9677;50.656;13.064;2022-08-01T03:56:11;22.40;48.50
19090;DHT22;9677;50.656;13.064;2022-08-01T03:58:42;22.50;48.60
19090;DHT22;9677;50.656;13.064;2022-08-01T04:01:17;22.30;48.60
19090;DHT22;9677;50.656;13.064;2022-08-01T04:03:47;22.30;48.70
19090;DHT22;9677;50.656;13.064;2022-08-01T04:06:15;22.30;48.70
19090;DHT22;9677;50.656;13.064;2022-08-01T04:08:44;22.30;48.70
19090;DHT22;9677;50.656;13.064;2022-08-01T04:11:23;22.30;48.80
19090;DHT22;9677;50.656;13.064;2022-08-01T04:13:54;22.40;48.90
19090;DHT22;9677;50.656;13.064;2022-08-01T04:16:46;22.30;49.00
19090;DHT22;9677;50.656;13.064;2022-08-01T04:19:14;22.20;49.00
19090;DHT22;9677;50.656;13.064;2022-08-01T04:21:43;22.20;49.00
19090;DHT22;9677;50.656;13.064;2022-08-01T04:24:14;22.20;49.00
19090;DHT22;9677;50.656;13.064;2022-08-01T04:26:46;22.20;49.20
19090;DHT22;9677;50.656;13.064;2022-08-01T04:29:17;22.20;49.20
19090;DHT22;9677;50.656;13.064;2022-08-01T04:31:48;22.10;49.20
19090;DHT22;9677;50.656;13.064;2022-08-01T04:34:20;22.10;49.30
19090;DHT22;9677;50.656;13.064;2022-08-01T04:36:52;22.10;49.40
19090;DHT22;9677;50.656;13.064;2022-08-01T04:39:21;22.20;49.40
19090;DHT22;9677;50.656;13.064;2022-08-01T04:41:54;22.10;49.30
19090;DHT22;9677;50.656;13.064;2022-08-01T04:44:24;22.10;49.40
19090;DHT22;9677;50.656;13.064;2022-08-01T04:47:01;22.10;49.40
19090;DHT22;9677;50.656;13.064;2022-08-01T04:49:31;22.10;49.60
19090;DHT22;9677;50.656;13.064;2022-08-01T04:52:15;22.10;49.60
19090;DHT22;9677;50.656;13.064;2022-08-01T04:54:50;22.10;49.60
19090;DHT22;9677;50.656;13.064;2022-08-01T04:57:18;22.10;49.60
19090;DHT22;9677;50.656;13.064;2022-08-01T04:59:47;22.10;49.70
19090;DHT22;9677;50.656;13.064;2022-08-01T05:02:18;22.30;49.90
19090;DHT22;9677;50.656;13.064;2022-08-01T05:04:47;22.10;49.90
19090;DHT22;9677;50.656;13.064;2022-08-01T05:07:15;22.10;49.80
19090;DHT22;9677;50.656;13.064;2022-08-01T05:09:44;22.20;49.90
19090;DHT22;9677;50.656;13.064;2022-08-01T05:12:13;22.10;49.90
19090;DHT22;9677;50.656;13.064;2022-08-01T05:14:42;22.30;50.10
19090;DHT22;9677;50.656;13.064;2022-08-01T05:17:11;22.20;50.00
19090;DHT22;9677;50.656;13.064;2022-08-01T05:19:43;22.20;50.10
19090;DHT22;9677;50.656;13.064;2022-08-01T05:22:11;22.20;50.10
19090;DHT22;9677;50.656;13.064;2022-08-01T05:24:40;22.20;50.20
19090;DHT22;9677;50.656;13.064;2022-08-01T05:27:11;22.20;50.20
19090;DHT22;9677;50.656;13.064;2022-08-01T05:29:42;22.30;50.30
19090;DHT22;9677;50.656;13.064;2022-08-01T05:32:11;22.30;50.40
19090;DHT22;9677;50.656;13.064;2022-08-01T05:34:39;22.30;50.40
19090;DHT22;9677;50.656;13.064;2022-08-01T05:37:10;22.30;50.60
19090;DHT22;9677;50.656;13.064;2022-08-01T05:39:38;22.30;50.80
19090;DHT22;9677;50.656;13.064;2022-08-01T05:42:06;22.40;50.80
19090;DHT22;9677;50.656;13.064;2022-08-01T05:44:35;22.40;51.00
19090;DHT22;9677;50.656;13.064;2022-08-01T05:47:03;22.40;51.00
19090;DHT22;9677;50.656;13.064;2022-08-01T05:49:32;22.50;51.20
19090;DHT22;9677;50.656;13.064;2022-08-01T05:52:00;22.50;51.20
19090;DHT22;9677;50.656;13.064;2022-08-01T05:54:31;22.50;51.20
19090;DHT22;9677;50.656;13.064;2022-08-01T06:00:48;22.60;52.10
19090;DHT22;9677;50.656;13.064;2022-08-01T06:03:17;22.70;51.40
19090;DHT22;9677;50.656;13.064;2022-08-01T06:05:46;22.70;51.40
19090;DHT22;9677;50.656;13.064;2022-08-01T06:08:14;22.80;51.50
19090;DHT22;9677;50.656;13.064;2022-08-01T06:10:44;22.90;51.60
19090;DHT22;9677;50.656;13.064;2022-08-01T06:13:12;23.00;51.80
19090;DHT22;9677;50.656;13.064;2022-08-01T06:15:41;22.90;51.70
19090;DHT22;9677;50.656;13.064;2022-08-01T06:18:09;23.00;51.60
19090;DHT22;9677;50.656;13.064;2022-08-01T06:20:38;23.20;51.80
19090;DHT22;9677;50.656;13.064;2022-08-01T06:23:06;23.00;51.70
19090;DHT22;9677;50.656;13.064;2022-08-01T06:25:56;23.10;52.40
19090;DHT22;9677;50.656;13.064;2022-08-01T06:28:25;23.10;51.70
19090;DHT22;9677;50.656;13.064;2022-08-01T06:30:54;23.20;51.70
19090;DHT22;9677;50.656;13.064;2022-08-01T06:33:22;23.20;51.60
19090;DHT22;9677;50.656;13.064;2022-08-01T06:35:51;23.20;51.50
19090;DHT22;9677;50.656;13.064;2022-08-01T06:38:19;23.30;51.60
19090;DHT22;9677;50.656;13.064;2022-08-01T06:40:47;23.40;51.60
19090;DHT22;9677;50.656;13.064;2022-08-01T06:43:17;23.40;51.70
19090;DHT22;9677;50.656;13.064;2022-08-01T06:45:46;23.50;51.80
19090;DHT22;9677;50.656;13.064;2022-08-01T06:48:14;23.40;51.70
19090;DHT22;9677;50.656;13.064;2022-08-01T06:50:43;23.50;51.80
19090;DHT22;9677;50.656;13.064;2022-08-01T06:53:11;23.60;51.80
19090;DHT22;9677;50.656;13.064;2022-08-01T06:55:39;23.60;51.90
19090;DHT22;9677;50.656;13.064;2022-08-01T06:58:08;23.60;51.90
19090;DHT22;9677;50.656;13.064;2022-08-01T07:00:38;23.80;52.00
19090;DHT22;9677;50.656;13.064;2022-08-01T07:03:06;23.70;52.00
19090;DHT22;9677;50.656;13.064;2022-08-01T07:05:34;23.80;52.00
19090;DHT22;9677;50.656;13.064;2022-08-01T07:08:03;23.80;52.00
19090;DHT22;9677;50.656;13.064;2022-08-01T07:10:32;23.80;51.90
19090;DHT22;9677;50.656;13.064;2022-08-01T07:13:00;23.90;52.00
19090;DHT22;9677;50.656;13.064;2022-08-01T07:15:28;23.90;51.90
19090;DHT22;9677;50.656;13.064;2022-08-01T07:17:58;24.00;51.90
19090;DHT22;9677;50.656;13.064;2022-08-01T07:20:30;24.00;51.90
19090;DHT22;9677;50.656;13.064;2022-08-01T07:23:07;24.00;51.80
19090;DHT22;9677;50.656;13.064;2022-08-01T07:25:38;24.10;52.00
19090;DHT22;9677;50.656;13.064;2022-08-01T07:28:16;24.10;51.80
19090;DHT22;9677;50.656;13.064;2022-08-01T07:30:44;24.10;51.80
19090;DHT22;9677;50.656;13.064;2022-08-01T07:33:14;24.20;51.80
19090;DHT22;9677;50.656;13.064;2022-08-01T07:35:42;24.20;51.90
19090;DHT22;9677;50.656;13.064;2022-08-01T07:38:11;24.30;51.90
19090;DHT22;9677;50.656;13.064;2022-08-01T07:40:40;24.30;52.00
19090;DHT22;9677;50.656;13.064;2022-08-01T07:43:09;24.30;51.90
19090;DHT22;9677;50.656;13.064;2022-08-01T07:45:37;24.40;51.90
19090;DHT22;9677;50.656;13.064;2022-08-01T07:48:13;24.60;51.90
19090;DHT22;9677;50.656;13.064;2022-08-01T07:50:42;24.50;51.70
19090;DHT22;9677;50.656;13.064;2022-08-01T07:53:10;24.50;51.60
19090;DHT22;9677;50.656;13.064;2022-08-01T07:55:38;24.60;51.60
19090;DHT22;9677;50.656;13.064;2022-08-01T07:58:07;24.60;51.60
19090;DHT22;9677;50.656;13.064;2022-08-01T08:00:35;24.60;51.60
19090;DHT22;9677;50.656;13.064;2022-08-01T08:03:04;24.70;51.70
19090;DHT22;9677;50.656;13.064;2022-08-01T08:05:34;24.80;51.70
19090;DHT22;9677;50.656;13.064;2022-08-01T08:08:22;24.80;51.70
19090;DHT22;9677;50.656;13.064;2022-08-01T08:10:51;24.90;51.50
19090;DHT22;9677;50.656;13.064;2022-08-01T08:13:20;25.00;51.50
19090;DHT22;9677;50.656;13.064;2022-08-01T08:15:48;24.90;51.30
19090;DHT22;9677;50.656;13.064;2022-08-01T08:18:16;24.90;51.80
19090;DHT22;9677;50.656;13.064;2022-08-01T08:20:46;25.00;51.20
19090;DHT22;9677;50.656;13.064;2022-08-01T08:23:16;24.90;51.20
19090;DHT22;9677;50.656;13.064;2022-08-01T08:26:09;25.10;51.30
19090;DHT22;9677;50.656;13.064;2022-08-01T08:28:38;25.00;51.20
19090;DHT22;9677;50.656;13.064;2022-08-01T08:31:07;25.00;51.30
19090;DHT22;9677;50.656;13.064;2022-08-01T08:33:51;25.00;51.40
19090;DHT22;9677;50.656;13.064;2022-08-01T08:36:21;25.00;51.40
19090;DHT22;9677;50.656;13.064;2022-08-01T08:38:57;25.00;51.60
19090;DHT22;9677;50.656;13.064;2022-08-01T08:41:28;25.00;51.40
19090;DHT22;9677;50.656;13.064;2022-08-01T08:44:05;25.00;51.50
19090;DHT22;9677;50.656;13.064;2022-08-01T08:46:41;25.00;51.50
19090;DHT22;9677;50.656;13.064;2022-08-01T08:49:12;24.90;51.60
19090;DHT22;9677;50.656;13.064;2022-08-01T08:51:47;24.90;51.50
19090;DHT22;9677;50.656;13.064;2022-08-01T08:54:19;24.90;51.80
19090;DHT22;9677;50.656;13.064;2022-08-01T08:56:58;24.90;51.60
19090;DHT22;9677;50.656;13.064;2022-08-01T08:59:28;24.80;51.70
19090;DHT22;9677;50.656;13.064;2022-08-01T09:01:57;24.80;51.70
19090;DHT22;9677;50.656;13.064;2022-08-01T09:04:26;24.80;51.70
19090;DHT22;9677;50.656;13.064;2022-08-01T09:06:56;24.70;51.90
19090;DHT22;9677;50.656;13.064;2022-08-01T09:09:24;24.70;52.10
19090;DHT22;9677;50.656;13.064;2022-08-01T09:11:54;24.70;52.10
19090;DHT22;9677;50.656;13.064;2022-08-01T09:14:32;24.70;52.40
19090;DHT22;9677;50.656;13.064;2022-08-01T09:17:04;24.60;52.50
19090;DHT22;9677;50.656;13.064;2022-08-01T09:19:37;24.70;52.80
19090;DHT22;9677;50.656;13.064;2022-08-01T09:22:10;24.70;52.80
19090;DHT22;9677;50.656;13.064;2022-08-01T09:24:40;24.70;52.90
19090;DHT22;9677;50.656;13.064;2022-08-01T09:27:19;24.70;52.80
19090;DHT22;9677;50.656;13.064;2022-08-01T09:29:51;24.60;53.00
19090;DHT22;9677;50.656;13.064;2022-08-01T09:32:28;24.80;52.70
19090;DHT22;9677;50.656;13.064;2022-08-01T09:35:24;24.70;52.70
19090;DHT22;9677;50.656;13.064;2022-08-01T09:38:19;24.70;53.50
19090;DHT22;9677;50.656;13.064;2022-08-01T09:40:50;24.80;53.70
19090;DHT22;9677;50.656;13.064;2022-08-01T09:43:21;24.80;53.30
19090;DHT22;9677;50.656;13.064;2022-08-01T09:45:50;24.80;53.30
19090;DHT22;9677;50.656;13.064;2022-08-01T09:48:21;24.90;53.40
19090;DHT22;9677;50.656;13.064;2022-08-01T09:50:57;25.00;53.60
19090;DHT22;9677;50.656;13.064;2022-08-01T09:54:38;25.00;53.60
19090;DHT22;9677;50.656;13.064;2022-08-01T09:57:12;25.10;53.50
19090;DHT22;9677;50.656;13.064;2022-08-01T09:59:45;25.20;53.60
19090;DHT22;9677;50.656;13.064;2022-08-01T10:02:30;25.30;53.50
19090;DHT22;9677;50.656;13.064;2022-08-01T10:05:00;25.40;53.70
19090;DHT22;9677;50.656;13.064;2022-08-01T10:07:35;25.40;53.20
19090;DHT22;9677;50.656;13.064;2022-08-01T10:10:14;25.50;53.00
19090;DHT22;9677;50.656;13.064;2022-08-01T10:12:43;25.60;53.60
19090;DHT22;9677;50.656;13.064;2022-08-01T10:15:15;25.60;52.70
19090;DHT22;9677;50.656;13.064;2022-08-01T10:17:48;25.70;52.80
19090;DHT22;9677;50.656;13.064;2022-08-01T10:20:25;25.70;52.70
19090;DHT22;9677;50.656;13.064;2022-08-01T10:23:00;25.70;52.70
19090;DHT22;9677;50.656;13.064;2022-08-01T10:25:38;25.80;52.70
19090;DHT22;9677;50.656;13.064;2022-08-01T10:28:15;25.70;52.70
19090;DHT22;9677;50.656;13.064;2022-08-01T10:30:50;25.80;52.60
19090;DHT22;9677;50.656;13.064;2022-08-01T10:33:22;25.90;52.60
19090;DHT22;9677;50.656;13.064;2022-08-01T10:36:10;25.90;52.90
19090;DHT22;9677;50.656;13.064;2022-08-01T10:38:39;25.90;53.10
19090;DHT22;9677;50.656;13.064;2022-08-01T10:41:13;26.00;53.40
19090;DHT22;9677;50.656;13.064;2022-08-01T10:43:43;26.10;52.90
19090;DHT22;9677;50.656;13.064;2022-08-01T10:46:13;26.20;52.60
19090;DHT22;9677;50.656;13.064;2022-08-01T10:48:49;26.40;52.70
19090;DHT22;9677;50.656;13.064;2022-08-01T10:51:20;26.50;52.70
19090;DHT22;9677;50.656;13.064;2022-08-01T10:54:10;26.60;52.50
19090;DHT22;9677;50.656;13.064;2022-08-01T10:56:44;26.70;52.30
19090;DHT22;9677;50.656;13.064;2022-08-01T10:59:19;26.90;52.20
19090;DHT22;9677;50.656;13.064;2022-08-01T11:02:09;27.00;51.80
19090;DHT22;9677;50.656;13.064;2022-08-01T11:04:44;27.10;51.50
19090;DHT22;9677;50.656;13.064;2022-08-01T11:07:21;27.10;51.00
19090;DHT22;9677;50.656;13.064;2022-08-01T11:10:03;27.10;50.90
19090;DHT22;9677;50.656;13.064;2022-08-01T11:12:42;27.20;50.60
19090;DHT22;9677;50.656;13.064;2022-08-01T11:15:24;27.10;50.40
19090;DHT22;9677;50.656;13.064;2022-08-01T11:18:03;27.10;50.50
19090;DHT22;9677;50.656;13.064;2022-08-01T11:20:58;27.10;50.80
19090;DHT22;9677;50.656;13.064;2022-08-01T11:23:48;27.10;50.90
19090;DHT22;9677;50.656;13.064;2022-08-01T11:26:19;27.20;51.60
19090;DHT22;9677;50.656;13.064;2022-08-01T11:29:15;27.20;50.90
19090;DHT22;9677;50.656;13.064;2022-08-01T11:31:49;27.30;51.00
19090;DHT22;9677;50.656;13.064;2022-08-01T11:34:19;27.40;50.90
19090;DHT22;9677;50.656;13.064;2022-08-01T11:36:48;27.50;51.00
19090;DHT22;9677;50.656;13.064;2022-08-01T11:39:35;27.60;50.90
19090;DHT22;9677;50.656;13.064;2022-08-01T11:42:18;27.70;50.90
19090;DHT22;9677;50.656;13.064;2022-08-01T11:44:50;27.80;50.50
19090;DHT22;9677;50.656;13.064;2022-08-01T11:47:19;27.90;50.40
19090;DHT22;9677;50.656;13.064;2022-08-01T11:50:35;28.00;50.30
19090;DHT22;9677;50.656;13.064;2022-08-01T11:53:06;28.10;49.80
19090;DHT22;9677;50.656;13.064;2022-08-01T11:55:37;28.20;49.60
19090;DHT22;9677;50.656;13.064;2022-08-01T11:58:22;28.20;49.70
19090;DHT22;9677;50.656;13.064;2022-08-01T12:00:58;28.30;49.80
19090;DHT22;9677;50.656;13.064;2022-08-01T12:03:28;28.40;49.50
19090;DHT22;9677;50.656;13.064;2022-08-01T12:06:00;28.50;49.50
19090;DHT22;9677;50.656;13.064;2022-08-01T12:08:30;28.60;49.40
19090;DHT22;9677;50.656;13.064;2022-08-01T12:11:03;28.70;49.50
19090;DHT22;9677;50.656;13.064;2022-08-01T12:13:40;28.80;49.10
19090;DHT22;9677;50.656;13.064;2022-08-01T12:16:11;28.90;49.40
19090;DHT22;9677;50.656;13.064;2022-08-01T12:18:40;29.00;49.10
19090;DHT22;9677;50.656;13.064;2022-08-01T12:21:10;29.10;49.10
19090;DHT22;9677;50.656;13.064;2022-08-01T12:23:38;29.30;49.10
19090;DHT22;9677;50.656;13.064;2022-08-01T12:26:06;29.40;49.10
19090;DHT22;9677;50.656;13.064;2022-08-01T12:28:55;29.50;48.80
19090;DHT22;9677;50.656;13.064;2022-08-01T12:31:32;29.60;48.30
19090;DHT22;9677;50.656;13.064;2022-08-01T12:34:24;29.70;47.40
19090;DHT22;9677;50.656;13.064;2022-08-01T12:36:55;29.80;47.00
19090;DHT22;9677;50.656;13.064;2022-08-01T12:39:30;29.80;47.30
19090;DHT22;9677;50.656;13.064;2022-08-01T12:42:00;29.80;46.70
19090;DHT22;9677;50.656;13.064;2022-08-01T12:44:30;29.80;47.00
19090;DHT22;9677;50.656;13.064;2022-08-01T12:47:00;29.90;47.10
19090;DHT22;9677;50.656;13.064;2022-08-01T12:49:32;29.90;47.10
19090;DHT22;9677;50.656;13.064;2022-08-01T12:52:01;30.00;47.00
19090;DHT22;9677;50.656;13.064;2022-08-01T12:54:29;30.10;46.70
19090;DHT22;9677;50.656;13.064;2022-08-01T12:56:58;30.00;46.70
19090;DHT22;9677;50.656;13.064;2022-08-01T12:59:27;30.00;46.30
19090;DHT22;9677;50.656;13.064;2022-08-01T13:01:56;30.00;45.90
19090;DHT22;9677;50.656;13.064;2022-08-01T13:04:26;30.00;45.80
19090;DHT22;9677;50.656;13.064;2022-08-01T13:06:55;30.00;45.70
19090;DHT22;9677;50.656;13.064;2022-08-01T13:09:23;29.90;45.70
19090;DHT22;9677;50.656;13.064;2022-08-01T13:11:53;29.90;45.60
19090;DHT22;9677;50.656;13.064;2022-08-01T13:14:30;29.80;45.70
19090;DHT22;9677;50.656;13.064;2022-08-01T13:16:59;29.80;45.90
19090;DHT22;9677;50.656;13.064;2022-08-01T13:19:44;29.70;45.60
19090;DHT22;9677;50.656;13.064;2022-08-01T13:22:14;29.60;45.20
19090;DHT22;9677;50.656;13.064;2022-08-01T13:24:42;29.60;45.60
19090;DHT22;9677;50.656;13.064;2022-08-01T13:27:20;29.60;45.70
19090;DHT22;9677;50.656;13.064;2022-08-01T13:29:50;29.60;45.50
19090;DHT22;9677;50.656;13.064;2022-08-01T13:32:21;29.50;45.70
19090;DHT22;9677;50.656;13.064;2022-08-01T13:35:04;29.50;45.80
19090;DHT22;9677;50.656;13.064;2022-08-01T13:37:34;29.50;45.50
19090;DHT22;9677;50.656;13.064;2022-08-01T13:40:06;29.40;45.70
19090;DHT22;9677;50.656;13.064;2022-08-01T13:42:35;29.40;45.90
19090;DHT22;9677;50.656;13.064;2022-08-01T13:45:05;29.40;45.80
19090;DHT22;9677;50.656;13.064;2022-08-01T13:47:40;29.40;45.80
19090;DHT22;9677;50.656;13.064;2022-08-01T13:50:30;29.40;45.60
19090;DHT22;9677;50.656;13.064;2022-08-01T13:52:59;29.30;45.60
19090;DHT22;9677;50.656;13.064;2022-08-01T13:55:27;29.30;45.70
19090;DHT22;9677;50.656;13.064;2022-08-01T13:58:00;29.30;45.60
19090;DHT22;9677;50.656;13.064;2022-08-01T14:00:30;29.30;45.60
19090;DHT22;9677;50.656;13.064;2022-08-01T14:02:58;29.30;45.70
19090;DHT22;9677;50.656;13.064;2022-08-01T14:05:26;29.30;45.60
19090;DHT22;9677;50.656;13.064;2022-08-01T14:07:56;29.30;45.70
19090;DHT22;9677;50.656;13.064;2022-08-01T14:10:24;29.30;45.50
19090;DHT22;9677;50.656;13.064;2022-08-01T14:12:55;29.30;45.50
19090;DHT22;9677;50.656;13.064;2022-08-01T14:15:25;29.30;45.60
19090;DHT22;9677;50.656;13.064;2022-08-01T14:18:06;29.30;45.50
19090;DHT22;9677;50.656;13.064;2022-08-01T14:20:36;29.30;45.40
19090;DHT22;9677;50.656;13.064;2022-08-01T14:23:07;29.30;45.50
19090;DHT22;9677;50.656;13.064;2022-08-01T14:25:36;29.30;45.30
19090;DHT22;9677;50.656;13.064;2022-08-01T14:28:25;29.30;45.30
19090;DHT22;9677;50.656;13.064;2022-08-01T14:30:55;29.20;45.30
19090;DHT22;9677;50.656;13.064;2022-08-01T14:33:24;29.20;45.30
19090;DHT22;9677;50.656;13.064;2022-08-01T14:35:53;29.30;45.40
19090;DHT22;9677;50.656;13.064;2022-08-01T14:38:43;29.20;45.30
19090;DHT22;9677;50.656;13.064;2022-08-01T14:41:13;29.20;45.20
19090;DHT22;9677;50.656;13.064;2022-08-01T14:43:41;29.20;45.30
19090;DHT22;9677;50.656;13.064;2022-08-01T14:46:09;29.10;45.30
19090;DHT22;9677;50.656;13.064;2022-08-01T14:48:39;29.10;45.40
19090;DHT22;9677;50.656;13.064;2022-08-01T14:51:08;29.20;45.60
19090;DHT22;9677;50.656;13.064;2022-08-01T14:53:36;29.20;45.30
19090;DHT22;9677;50.656;13.064;2022-08-01T14:56:12;29.20;45.00
19090;DHT22;9677;50.656;13.064;2022-08-01T14:58:40;29.30;45.00
19090;DHT22;9677;50.656;13.064;2022-08-01T15:01:08;29.20;45.10
19090;DHT22;9677;50.656;13.064;2022-08-01T15:03:37;29.30;45.30
19090;DHT22;9677;50.656;13.064;2022-08-01T15:06:05;29.30;45.30
19090;DHT22;9677;50.656;13.064;2022-08-01T15:08:36;29.30;45.40
19090;DHT22;9677;50.656;13.064;2022-08-01T15:11:05;29.30;45.40
19090;DHT22;9677;50.656;13.064;2022-08-01T15:13:36;29.30;45.20
19090;DHT22;9677;50.656;13.064;2022-08-01T15:16:08;29.40;45.20
19090;DHT22;9677;50.656;13.064;2022-08-01T15:18:38;29.40;45.30
19090;DHT22;9677;50.656;13.064;2022-08-01T15:21:08;29.40;45.20
19090;DHT22;9677;50.656;13.064;2022-08-01T15:23:43;29.40;45.30
19090;DHT22;9677;50.656;13.064;2022-08-01T15:26:11;29.40;45.20
19090;DHT22;9677;50.656;13.064;2022-08-01T15:28:41;29.40;45.00
19090;DHT22;9677;50.656;13.064;2022-08-01T15:31:10;29.40;44.90
19090;DHT22;9677;50.656;13.064;2022-08-01T15:33:40;29.40;44.90
19090;DHT22;9677;50.656;13.064;2022-08-01T15:36:08;29.40;44.80
19090;DHT22;9677;50.656;13.064;2022-08-01T15:38:41;29.40;44.70
19090;DHT22;9677;50.656;13.064;2022-08-01T15:41:09;29.40;44.70
19090;DHT22;9677;50.656;13.064;2022-08-01T15:43:38;29.40;44.70
19090;DHT22;9677;50.656;13.064;2022-08-01T15:46:12;29.40;44.70
19090;DHT22;9677;50.656;13.064;2022-08-01T15:48:40;29.40;44.70
19090;DHT22;9677;50.656;13.064;2022-08-01T15:51:08;29.30;44.50
19090;DHT22;9677;50.656;13.064;2022-08-01T15:53:37;29.30;44.40
19090;DHT22;9677;50.656;13.064;2022-08-01T15:56:06;29.30;44.40
19090;DHT22;9677;50.656;13.064;2022-08-01T15:58:34;29.30;44.40
19090;DHT22;9677;50.656;13.064;2022-08-01T16:01:02;29.20;44.40
19090;DHT22;9677;50.656;13.064;2022-08-01T16:03:32;29.10;44.70
19090;DHT22;9677;50.656;13.064;2022-08-01T16:06:01;29.10;44.60
19090;DHT22;9677;50.656;13.064;2022-08-01T16:08:29;29.10;44.60